sensor_id;sensor_type;location;lat;lon;timestamp;temperature;humidity
22145;DHT22;11238;48.730;11.566;2024-02-14T00:01:06;1.70;99.90
22145;DHT22;11238;48.730;11.566;2024-02-14T00:03:35;1.70;99.90
22145;DHT22;11238;48.730;11.566;2024-02-14T00:06:05;1.70;99.90
22145;DHT22;11238;48.730;11.566;2024-02-14T00:08:31;1.70;99.90
22145;DHT22;11238;48.730;11.566;2024-02-14T00:10:57;1.60;99.90
22145;DHT22;11238;48.730;11.566;2024-02-14T00:13:23;1.60;99.90
22145;DHT22;11238;48.730;11.566;2024-02-14T00:15:49;1.60;99.90
22145;DHT22;11238;48.730;11.566;2024-02-14T00:18:16;1.60;99.90
22145;DHT22;11238;48.730;11.566;2024-02-14T00:20:42;1.60;99.90
22145;DHT22;11238;48.730;11.566;2024-02-14T00:23:08;1.70;99.90
22145;DHT22;11238;48.730;11.566;2024-02-14T00:25:34;1.70;99.90
22145;DHT22;11238;48.730;11.566;2024-02-14T00:28:00;1.70;99.90
22145;DHT22;11238;48.730;11.566;2024-02-14T00:30:26;1.70;99.90
22145;DHT22;11238;48.730;11.566;2024-02-14T00:32:52;1.70;99.90
22145;DHT22;11238;48.730;11.566;2024-02-14T00:35:18;1.60;99.90
22145;DHT22;11238;48.730;11.566;2024-02-14T00:37:44;1.50;99.90
22145;DHT22;11238;48.730;11.566;2024-02-14T00:40:10;1.50;99.90
22145;DHT22;11238;48.730;11.566;2024-02-14T00:42:37;1.40;99.90
22145;DHT22;11238;48.730;11.566;2024-02-14T00:45:03;1.40;99.90
22145;DHT22;11238;48.730;11.566;2024-02-14T00:47:35;1.40;99.90
22145;DHT22;11238;48.730;11.566;2024-02-14T00:50:19;1.40;99.90
22145;DHT22;11238;48.730;11.566;2024-02-14T00:52:45;1.40;99.90
22145;DHT22;11238;48.730;11.566;2024-02-14T00:55:11;1.30;99.90
22145;DHT22;11238;48.730;11.566;2024-02-14T00:57:37;1.30;99.90
22145;DHT22;11238;48.730;11.566;2024-02-14T01:00:03;1.30;99.90
22145;DHT22;11238;48.730;11.566;2024-02-14T01:02:31;1.40;99.90
22145;DHT22;11238;48.730;11.566;2024-02-14T01:04:57;1.40;99.90
22145;DHT22;11238;48.730;11.566;2024-02-14T01:07:23;1.40;99.90
22145;DHT22;11238;48.730;11.566;2024-02-14T01:09:49;1.40;99.90
22145;DHT22;11238;48.730;11.566;2024-02-14T01:12:15;1.40;99.90
22145;DHT22;11238;48.730;11.566;2024-02-14T01:14:42;1.40;99.90
22145;DHT22;11238;48.730;11.566;2024-02-14T01:17:09;1.40;99.90
22145;DHT22;11238;48.730;11.566;2024-02-14T01:19:35;1.40;99.90
22145;DHT22;11238;48.730;11.566;2024-02-14T01:22:01;1.40;99.90
22145;DHT22;11238;48.730;11.566;2024-02-14T01:24:27;1.40;99.90
22145;DHT22;11238;48.730;11.566;2024-02-14T01:26:54;1.40;99.90
22145;DHT22;11238;48.730;11.566;2024-02-14T01:29:21;1.40;99.90
22145;DHT22;11238;48.730;11.566;2024-02-14T01:31:47;1.40;99.90
22145;DHT22;11238;48.730;11.566;2024-02-14T01:34:14;1.40;99.90
22145;DHT22;11238;48.730;11.566;2024-02-14T01:36:40;1.40;99.90
22145;DHT22;11238;48.730;11.566;2024-02-14T01:39:06;1.50;99.90
22145;DHT22;11238;48.730;11.566;2024-02-14T01:41:37;1.50;99.90
22145;DHT22;11238;48.730;11.566;2024-02-14T01:44:04;1.50;99.90
22145;DHT22;11238;48.730;11.566;2024-02-14T01:46:29;1.50;99.90
22145;DHT22;11238;48.730;11.566;2024-02-14T01:48:55;1.50;99.90
22145;DHT22;11238;48.730;11.566;2024-02-14T01:51:22;1.50;99.90
22145;DHT22;11238;48.730;11.566;2024-02-14T01:53:53;1.60;99.90
22145;DHT22;11238;48.730;11.566;2024-02-14T01:56:20;1.60;99.90
22145;DHT22;11238;48.730;11.566;2024-02-14T01:58:47;1.60;99.90
22145;DHT22;11238;48.730;11.566;2024-02-14T02:01:15;1.60;99.90
22145;DHT22;11238;48.730;11.566;2024-02-14T02:03:41;1.60;99.90
22145;DHT22;11238;48.730;11.566;2024-02-14T02:06:07;1.50;99.90
22145;DHT22;11238;48.730;11.566;2024-02-14T02:08:33;1.50;99.90
22145;DHT22;11238;48.730;11.566;2024-02-14T02:10:59;1.40;99.90
22145;DHT22;11238;48.730;11.566;2024-02-14T02:13:24;1.50;99.90
22145;DHT22;11238;48.730;11.566;2024-02-14T02:15:52;1.50;99.90
22145;DHT22;11238;48.730;11.566;2024-02-14T02:18:18;1.40;99.90
22145;DHT22;11238;48.730;11.566;2024-02-14T02:20:45;1.40;99.90
22145;DHT22;11238;48.730;11.566;2024-02-14T02:23:11;1.30;99.90
22145;DHT22;11238;48.730;11.566;2024-02-14T02:25:41;1.40;99.90
22145;DHT22;11238;48.730;11.566;2024-02-14T02:28:07;1.40;99.90
22145;DHT22;11238;48.730;11.566;2024-02-14T02:30:35;1.40;99.90
22145;DHT22;11238;48.730;11.566;2024-02-14T02:33:02;1.40;99.90
22145;DHT22;11238;48.730;11.566;2024-02-14T02:35:28;1.40;99.90
22145;DHT22;11238;48.730;11.566;2024-02-14T02:37:54;1.40;99.90
22145;DHT22;11238;48.730;11.566;2024-02-14T02:40:20;1.40;99.90
22145;DHT22;11238;48.730;11.566;2024-02-14T02:42:47;1.40;99.90
22145;DHT22;11238;48.730;11.566;2024-02-14T02:45:13;1.50;99.90
22145;DHT22;11238;48.730;11.566;2024-02-14T02:47:39;1.40;99.90
22145;DHT22;11238;48.730;11.566;2024-02-14T02:50:06;1.40;99.90
22145;DHT22;11238;48.730;11.566;2024-02-14T02:52:34;1.40;99.90
22145;DHT22;11238;48.730;11.566;2024-02-14T02:54:59;1.40;99.90
22145;DHT22;11238;48.730;11.566;2024-02-14T02:57:48;1.40;99.90
22145;DHT22;11238;48.730;11.566;2024-02-14T03:00:15;1.40;99.90
22145;DHT22;11238;48.730;11.566;2024-02-14T03:02:41;1.50;99.90
22145;DHT22;11238;48.730;11.566;2024-02-14T03:05:10;1.40;99.90
22145;DHT22;11238;48.730;11.566;2024-02-14T03:07:44;1.50;99.90
22145;DHT22;11238;48.730;11.566;2024-02-14T03:10:11;1.50;99.90
22145;DHT22;11238;48.730;11.566;2024-02-14T03:12:39;1.40;99.90
22145;DHT22;11238;48.730;11.566;2024-02-14T03:15:06;1.40;99.90
22145;DHT22;11238;48.730;11.566;2024-02-14T03:17:36;1.40;99.90
22145;DHT22;11238;48.730;11.566;2024-02-14T03:20:02;1.30;99.90
22145;DHT22;11238;48.730;11.566;2024-02-14T03:22:29;1.30;99.90
22145;DHT22;11238;48.730;11.566;2024-02-14T03:24:55;1.20;99.90
22145;DHT22;11238;48.730;11.566;2024-02-14T03:27:20;1.20;99.90
22145;DHT22;11238;48.730;11.566;2024-02-14T03:29:48;1.20;99.90
22145;DHT22;11238;48.730;11.566;2024-02-14T03:32:16;1.20;99.90
22145;DHT22;11238;48.730;11.566;2024-02-14T03:34:43;1.10;99.90
22145;DHT22;11238;48.730;11.566;2024-02-14T03:37:10;1.10;99.90
22145;DHT22;11238;48.730;11.566;2024-02-14T03:39:36;1.10;99.90
22145;DHT22;11238;48.730;11.566;2024-02-14T03:42:03;1.10;99.90
22145;DHT22;11238;48.730;11.566;2024-02-14T03:44:33;1.00;99.90
22145;DHT22;11238;48.730;11.566;2024-02-14T03:46:59;0.90;99.90
22145;DHT22;11238;48.730;11.566;2024-02-14T03:49:25;1.00;99.90
22145;DHT22;11238;48.730;11.566;2024-02-14T03:51:52;1.00;99.90
22145;DHT22;11238;48.730;11.566;2024-02-14T03:54:20;1.00;99.90
22145;DHT22;11238;48.730;11.566;2024-02-14T03:56:46;1.00;99.90
22145;DHT22;11238;48.730;11.566;2024-02-14T03:59:12;1.00;99.90
22145;DHT22;11238;48.730;11.566;2024-02-14T04:01:37;1.00;99.90
22145;DHT22;11238;48.730;11.566;2024-02-14T04:04:04;1.00;99.90
22145;DHT22;11238;48.730;11.566;2024-02-14T04:06:30;1.00;99.90
22145;DHT22;11238;48.730;11.566;2024-02-14T04:08:57;1.00;99.90
22145;DHT22;11238;48.730;11.566;2024-02-14T04:11:24;1.00;99.90
22145;DHT22;11238;48.730;11.566;2024-02-14T04:13:50;1.00;99.90
22145;DHT22;11238;48.730;11.566;2024-02-14T04:16:19;1.00;99.90
22145;DHT22;11238;48.730;11.566;2024-02-14T04:18:45;1.00;99.90
22145;DHT22;11238;48.730;11.566;2024-02-14T04:21:11;0.90;99.90
22145;DHT22;11238;48.730;11.566;2024-02-14T04:23:37;0.70;99.90
22145;DHT22;11238;48.730;11.566;2024-02-14T04:26:03;0.70;99.90
22145;DHT22;11238;48.730;11.566;2024-02-14T04:28:29;0.60;99.90
22145;DHT22;11238;48.730;11.566;2024-02-14T04:30:55;0.60;99.90
22145;DHT22;11238;48.730;11.566;2024-02-14T04:33:23;0.60;99.90
22145;DHT22;11238;48.730;11.566;2024-02-14T04:35:48;0.60;99.90
22145;DHT22;11238;48.730;11.566;2024-02-14T04:38:14;0.60;99.90
22145;DHT22;11238;48.730;11.566;2024-02-14T04:40:40;0.60;99.90
22145;DHT22;11238;48.730;11.566;2024-02-14T04:43:06;0.60;99.90
22145;DHT22;11238;48.730;11.566;2024-02-14T04:45:32;0.70;99.90
22145;DHT22;11238;48.730;11.566;2024-02-14T04:47:58;0.60;99.90
22145;DHT22;11238;48.730;11.566;2024-02-14T04:50:23;0.70;99.90
22145;DHT22;11238;48.730;11.566;2024-02-14T04:52:49;0.70;99.90
22145;DHT22;11238;48.730;11.566;2024-02-14T04:55:15;0.70;99.90
22145;DHT22;11238;48.730;11.566;2024-02-14T04:57:41;0.70;99.90
22145;DHT22;11238;48.730;11.566;2024-02-14T05:00:07;0.70;99.90
22145;DHT22;11238;48.730;11.566;2024-02-14T05:02:35;0.80;99.90
22145;DHT22;11238;48.730;11.566;2024-02-14T05:05:02;0.80;99.90
22145;DHT22;11238;48.730;11.566;2024-02-14T05:07:28;0.80;99.90
22145;DHT22;11238;48.730;11.566;2024-02-14T05:09:54;0.80;99.90
22145;DHT22;11238;48.730;11.566;2024-02-14T05:12:22;0.90;99.90
22145;DHT22;11238;48.730;11.566;2024-02-14T05:14:48;0.90;99.90
22145;DHT22;11238;48.730;11.566;2024-02-14T05:17:14;0.90;99.90
22145;DHT22;11238;48.730;11.566;2024-02-14T05:19:43;1.00;99.90
22145;DHT22;11238;48.730;11.566;2024-02-14T05:22:09;1.00;99.90
22145;DHT22;11238;48.730;11.566;2024-02-14T05:24:35;1.00;99.90
22145;DHT22;11238;48.730;11.566;2024-02-14T05:27:04;1.10;99.90
22145;DHT22;11238;48.730;11.566;2024-02-14T05:29:29;1.10;99.90
22145;DHT22;11238;48.730;11.566;2024-02-14T05:31:55;1.10;99.90
22145;DHT22;11238;48.730;11.566;2024-02-14T05:34:21;1.20;99.90
22145;DHT22;11238;48.730;11.566;2024-02-14T05:36:47;1.20;99.90
22145;DHT22;11238;48.730;11.566;2024-02-14T05:39:14;1.20;99.90
22145;DHT22;11238;48.730;11.566;2024-02-14T05:41:41;1.30;99.90
22145;DHT22;11238;48.730;11.566;2024-02-14T05:44:07;1.30;99.90
22145;DHT22;11238;48.730;11.566;2024-02-14T05:46:33;1.30;99.90
22145;DHT22;11238;48.730;11.566;2024-02-14T05:48:58;1.30;99.90
22145;DHT22;11238;48.730;11.566;2024-02-14T05:51:24;1.30;99.90
22145;DHT22;11238;48.730;11.566;2024-02-14T05:53:50;1.40;99.90
22145;DHT22;11238;48.730;11.566;2024-02-14T05:56:16;1.40;99.90
22145;DHT22;11238;48.730;11.566;2024-02-14T05:58:42;1.30;99.90
22145;DHT22;11238;48.730;11.566;2024-02-14T06:01:09;1.30;99.90
22145;DHT22;11238;48.730;11.566;2024-02-14T06:03:34;1.30;99.90
22145;DHT22;11238;48.730;11.566;2024-02-14T06:06:00;1.30;99.90
22145;DHT22;11238;48.730;11.566;2024-02-14T06:08:26;1.30;99.90
22145;DHT22;11238;48.730;11.566;2024-02-14T06:10:52;1.30;99.90
22145;DHT22;11238;48.730;11.566;2024-02-14T06:13:18;1.40;99.90
22145;DHT22;11238;48.730;11.566;2024-02-14T06:15:45;1.30;99.90
22145;DHT22;11238;48.730;11.566;2024-02-14T06:18:11;1.30;99.90
22145;DHT22;11238;48.730;11.566;2024-02-14T06:20:36;1.60;99.90
22145;DHT22;11238;48.730;11.566;2024-02-14T06:23:04;1.70;99.90
22145;DHT22;11238;48.730;11.566;2024-02-14T06:25:31;1.80;99.90
22145;DHT22;11238;48.730;11.566;2024-02-14T06:27:57;1.80;99.90
22145;DHT22;11238;48.730;11.566;2024-02-14T06:30:22;1.90;99.90
22145;DHT22;11238;48.730;11.566;2024-02-14T06:32:48;1.80;99.90
22145;DHT22;11238;48.730;11.566;2024-02-14T06:35:14;1.90;99.90
22145;DHT22;11238;48.730;11.566;2024-02-14T06:37:41;1.80;99.90
22145;DHT22;11238;48.730;11.566;2024-02-14T06:40:07;1.90;99.90
22145;DHT22;11238;48.730;11.566;2024-02-14T06:42:34;1.90;99.90
22145;DHT22;11238;48.730;11.566;2024-02-14T06:45:00;1.90;99.90
22145;DHT22;11238;48.730;11.566;2024-02-14T06:47:25;1.90;99.90
22145;DHT22;11238;48.730;11.566;2024-02-14T06:49:56;1.90;99.90
22145;DHT22;11238;48.730;11.566;2024-02-14T06:52:22;1.90;99.90
22145;DHT22;11238;48.730;11.566;2024-02-14T06:54:47;1.90;99.90
22145;DHT22;11238;48.730;11.566;2024-02-14T06:57:14;2.00;99.90
22145;DHT22;11238;48.730;11.566;2024-02-14T06:59:39;2.00;99.90
22145;DHT22;11238;48.730;11.566;2024-02-14T07:02:06;2.00;99.90
22145;DHT22;11238;48.730;11.566;2024-02-14T07:04:32;2.10;99.90
22145;DHT22;11238;48.730;11.566;2024-02-14T07:06:58;2.10;99.90
22145;DHT22;11238;48.730;11.566;2024-02-14T07:09:24;2.10;99.90
22145;DHT22;11238;48.730;11.566;2024-02-14T07:11:51;2.20;99.90
22145;DHT22;11238;48.730;11.566;2024-02-14T07:14:19;2.20;99.90
22145;DHT22;11238;48.730;11.566;2024-02-14T07:16:45;2.20;99.90
22145;DHT22;11238;48.730;11.566;2024-02-14T07:19:10;2.30;99.90
22145;DHT22;11238;48.730;11.566;2024-02-14T07:21:36;2.30;99.90
22145;DHT22;11238;48.730;11.566;2024-02-14T07:24:04;2.30;99.90
22145;DHT22;11238;48.730;11.566;2024-02-14T07:26:31;2.30;99.90
22145;DHT22;11238;48.730;11.566;2024-02-14T07:28:56;2.40;99.90
22145;DHT22;11238;48.730;11.566;2024-02-14T07:31:23;2.40;99.90
22145;DHT22;11238;48.730;11.566;2024-02-14T07:33:49;2.40;99.90
22145;DHT22;11238;48.730;11.566;2024-02-14T07:36:19;2.50;99.90
22145;DHT22;11238;48.730;11.566;2024-02-14T07:38:44;2.50;99.90
22145;DHT22;11238;48.730;11.566;2024-02-14T07:41:10;2.50;99.90
22145;DHT22;11238;48.730;11.566;2024-02-14T07:43:36;2.50;99.90
22145;DHT22;11238;48.730;11.566;2024-02-14T07:46:01;2.50;99.90
22145;DHT22;11238;48.730;11.566;2024-02-14T07:48:28;2.50;99.90
22145;DHT22;11238;48.730;11.566;2024-02-14T07:50:53;2.60;99.90
22145;DHT22;11238;48.730;11.566;2024-02-14T07:53:21;2.60;99.90
22145;DHT22;11238;48.730;11.566;2024-02-14T07:55:47;2.70;99.90
22145;DHT22;11238;48.730;11.566;2024-02-14T07:58:13;2.80;99.90
22145;DHT22;11238;48.730;11.566;2024-02-14T08:00:39;2.80;99.90
22145;DHT22;11238;48.730;11.566;2024-02-14T08:03:05;2.90;99.90
22145;DHT22;11238;48.730;11.566;2024-02-14T08:05:31;3.00;99.90
22145;DHT22;11238;48.730;11.566;2024-02-14T08:07:57;3.00;99.90
22145;DHT22;11238;48.730;11.566;2024-02-14T08:10:24;3.00;99.90
22145;DHT22;11238;48.730;11.566;2024-02-14T08:12:50;3.10;99.90
22145;DHT22;11238;48.730;11.566;2024-02-14T08:15:16;3.10;99.90
22145;DHT22;11238;48.730;11.566;2024-02-14T08:17:42;3.20;99.90
22145;DHT22;11238;48.730;11.566;2024-02-14T08:20:08;3.20;99.90
22145;DHT22;11238;48.730;11.566;2024-02-14T08:22:33;3.30;99.90
22145;DHT22;11238;48.730;11.566;2024-02-14T08:24:59;3.40;99.90
22145;DHT22;11238;48.730;11.566;2024-02-14T08:27:25;3.50;99.90
22145;DHT22;11238;48.730;11.566;2024-02-14T08:29:53;3.50;99.90
22145;DHT22;11238;48.730;11.566;2024-02-14T08:32:19;3.60;99.90
22145;DHT22;11238;48.730;11.566;2024-02-14T08:34:45;3.70;99.90
22145;DHT22;11238;48.730;11.566;2024-02-14T08:37:10;3.60;99.90
22145;DHT22;11238;48.730;11.566;2024-02-14T08:39:36;3.70;99.90
22145;DHT22;11238;48.730;11.566;2024-02-14T08:42:02;3.80;99.90
22145;DHT22;11238;48.730;11.566;2024-02-14T08:44:33;3.80;99.90
22145;DHT22;11238;48.730;11.566;2024-02-14T08:46:59;3.80;99.90
22145;DHT22;11238;48.730;11.566;2024-02-14T08:49:26;3.80;99.90
22145;DHT22;11238;48.730;11.566;2024-02-14T08:51:52;3.90;99.90
22145;DHT22;11238;48.730;11.566;2024-02-14T08:54:17;4.00;99.90
22145;DHT22;11238;48.730;11.566;2024-02-14T08:56:43;4.00;99.90
22145;DHT22;11238;48.730;11.566;2024-02-14T08:59:09;4.10;99.90
22145;DHT22;11238;48.730;11.566;2024-02-14T09:01:37;4.20;99.90
22145;DHT22;11238;48.730;11.566;2024-02-14T09:04:03;4.30;99.90
22145;DHT22;11238;48.730;11.566;2024-02-14T09:06:29;4.40;99.90
22145;DHT22;11238;48.730;11.566;2024-02-14T09:08:55;4.50;99.90
22145;DHT22;11238;48.730;11.566;2024-02-14T09:11:20;4.60;99.90
22145;DHT22;11238;48.730;11.566;2024-02-14T09:13:48;4.60;99.90
22145;DHT22;11238;48.730;11.566;2024-02-14T09:16:16;4.70;99.90
22145;DHT22;11238;48.730;11.566;2024-02-14T09:18:44;4.80;99.90
22145;DHT22;11238;48.730;11.566;2024-02-14T09:21:10;4.90;99.90
22145;DHT22;11238;48.730;11.566;2024-02-14T09:23:36;5.00;99.90
22145;DHT22;11238;48.730;11.566;2024-02-14T09:26:06;5.00;99.90
22145;DHT22;11238;48.730;11.566;2024-02-14T09:28:33;5.10;99.90
22145;DHT22;11238;48.730;11.566;2024-02-14T09:31:01;5.10;99.90
22145;DHT22;11238;48.730;11.566;2024-02-14T09:33:30;5.20;99.90
22145;DHT22;11238;48.730;11.566;2024-02-14T09:35:56;5.30;99.90
22145;DHT22;11238;48.730;11.566;2024-02-14T09:38:22;5.40;99.90
22145;DHT22;11238;48.730;11.566;2024-02-14T09:40:51;5.40;99.90
22145;DHT22;11238;48.730;11.566;2024-02-14T09:43:39;5.50;99.90
22145;DHT22;11238;48.730;11.566;2024-02-14T09:46:08;5.50;99.90
22145;DHT22;11238;48.730;11.566;2024-02-14T09:48:34;5.60;99.90
22145;DHT22;11238;48.730;11.566;2024-02-14T09:51:02;5.70;99.90
22145;DHT22;11238;48.730;11.566;2024-02-14T09:53:29;5.70;99.90
22145;DHT22;11238;48.730;11.566;2024-02-14T09:55:56;5.80;99.90
22145;DHT22;11238;48.730;11.566;2024-02-14T09:58:22;5.90;99.90
22145;DHT22;11238;48.730;11.566;2024-02-14T10:00:49;5.90;99.90
22145;DHT22;11238;48.730;11.566;2024-02-14T10:03:16;5.90;99.90
22145;DHT22;11238;48.730;11.566;2024-02-14T10:05:41;5.90;99.90
22145;DHT22;11238;48.730;11.566;2024-02-14T10:08:07;6.10;99.90
22145;DHT22;11238;48.730;11.566;2024-02-14T10:10:34;6.40;99.90
22145;DHT22;11238;48.730;11.566;2024-02-14T10:13:04;6.70;99.90
22145;DHT22;11238;48.730;11.566;2024-02-14T10:15:30;6.90;99.90
22145;DHT22;11238;48.730;11.566;2024-02-14T10:17:58;7.30;99.90
22145;DHT22;11238;48.730;11.566;2024-02-14T10:20:25;7.60;99.90
22145;DHT22;11238;48.730;11.566;2024-02-14T10:22:59;7.90;99.90
22145;DHT22;11238;48.730;11.566;2024-02-14T10:25:26;8.30;99.90
22145;DHT22;11238;48.730;11.566;2024-02-14T10:27:52;8.60;99.90
22145;DHT22;11238;48.730;11.566;2024-02-14T10:30:18;8.80;99.90
22145;DHT22;11238;48.730;11.566;2024-02-14T10:32:44;9.10;99.90
22145;DHT22;11238;48.730;11.566;2024-02-14T10:35:13;9.00;99.90
22145;DHT22;11238;48.730;11.566;2024-02-14T10:37:39;9.00;99.90
22145;DHT22;11238;48.730;11.566;2024-02-14T10:40:06;9.00;99.90
22145;DHT22;11238;48.730;11.566;2024-02-14T10:42:33;9.00;99.90
22145;DHT22;11238;48.730;11.566;2024-02-14T10:44:59;9.00;99.90
22145;DHT22;11238;48.730;11.566;2024-02-14T10:47:30;9.00;99.90
22145;DHT22;11238;48.730;11.566;2024-02-14T10:50:03;8.90;99.90
22145;DHT22;11238;48.730;11.566;2024-02-14T10:52:39;8.90;99.90
22145;DHT22;11238;48.730;11.566;2024-02-14T10:55:06;9.00;99.90
22145;DHT22;11238;48.730;11.566;2024-02-14T10:57:33;9.00;99.90
22145;DHT22;11238;48.730;11.566;2024-02-14T11:00:03;9.00;99.90
22145;DHT22;11238;48.730;11.566;2024-02-14T11:02:31;9.00;99.90
22145;DHT22;11238;48.730;11.566;2024-02-14T11:04:58;9.00;99.90
22145;DHT22;11238;48.730;11.566;2024-02-14T11:07:29;9.00;99.90
22145;DHT22;11238;48.730;11.566;2024-02-14T11:10:08;9.10;99.90
22145;DHT22;11238;48.730;11.566;2024-02-14T11:12:35;9.10;99.90
22145;DHT22;11238;48.730;11.566;2024-02-14T11:15:14;9.20;99.90
22145;DHT22;11238;48.730;11.566;2024-02-14T11:17:42;9.20;99.90
22145;DHT22;11238;48.730;11.566;2024-02-14T11:20:19;9.30;99.90
22145;DHT22;11238;48.730;11.566;2024-02-14T11:22:56;9.40;99.90
22145;DHT22;11238;48.730;11.566;2024-02-14T11:25:27;9.60;99.90
22145;DHT22;11238;48.730;11.566;2024-02-14T11:27:53;9.60;99.90
22145;DHT22;11238;48.730;11.566;2024-02-14T11:30:34;9.60;99.90
22145;DHT22;11238;48.730;11.566;2024-02-14T11:33:13;9.60;99.90
22145;DHT22;11238;48.730;11.566;2024-02-14T11:35:41;9.50;99.90
22145;DHT22;11238;48.730;11.566;2024-02-14T11:38:08;9.40;99.90
22145;DHT22;11238;48.730;11.566;2024-02-14T11:40:38;9.40;99.90
22145;DHT22;11238;48.730;11.566;2024-02-14T11:43:14;9.40;99.90
22145;DHT22;11238;48.730;11.566;2024-02-14T11:45:44;9.40;99.90
22145;DHT22;11238;48.730;11.566;2024-02-14T11:48:12;9.40;99.90
22145;DHT22;11238;48.730;11.566;2024-02-14T11:50:39;9.40;99.90
22145;DHT22;11238;48.730;11.566;2024-02-14T11:53:06;9.40;99.90
22145;DHT22;11238;48.730;11.566;2024-02-14T11:55:39;9.40;99.90
22145;DHT22;11238;48.730;11.566;2024-02-14T11:58:08;9.50;99.90
22145;DHT22;11238;48.730;11.566;2024-02-14T12:00:40;9.50;99.90
22145;DHT22;11238;48.730;11.566;2024-02-14T12:03:08;9.50;99.90
22145;DHT22;11238;48.730;11.566;2024-02-14T12:05:35;9.60;99.90
22145;DHT22;11238;48.730;11.566;2024-02-14T12:08:02;9.60;99.90
22145;DHT22;11238;48.730;11.566;2024-02-14T12:10:30;9.70;99.90
22145;DHT22;11238;48.730;11.566;2024-02-14T12:13:04;9.70;99.90
22145;DHT22;11238;48.730;11.566;2024-02-14T12:15:40;9.80;99.90
22145;DHT22;11238;48.730;11.566;2024-02-14T12:18:06;9.80;99.90
22145;DHT22;11238;48.730;11.566;2024-02-14T12:20:32;9.80;99.90
22145;DHT22;11238;48.730;11.566;2024-02-14T12:22:59;9.80;99.90
22145;DHT22;11238;48.730;11.566;2024-02-14T12:25:25;9.80;99.90
22145;DHT22;11238;48.730;11.566;2024-02-14T12:27:52;9.90;99.90
22145;DHT22;11238;48.730;11.566;2024-02-14T12:30:18;9.90;99.90
22145;DHT22;11238;48.730;11.566;2024-02-14T12:32:58;9.90;99.90
22145;DHT22;11238;48.730;11.566;2024-02-14T12:35:25;10.00;99.90
22145;DHT22;11238;48.730;11.566;2024-02-14T12:37:51;10.10;99.90
22145;DHT22;11238;48.730;11.566;2024-02-14T12:40:19;10.00;99.90
22145;DHT22;11238;48.730;11.566;2024-02-14T12:42:45;10.00;99.90
22145;DHT22;11238;48.730;11.566;2024-02-14T12:45:11;10.00;99.90
22145;DHT22;11238;48.730;11.566;2024-02-14T12:47:37;10.00;99.90
22145;DHT22;11238;48.730;11.566;2024-02-14T12:50:04;10.20;99.90
22145;DHT22;11238;48.730;11.566;2024-02-14T12:52:34;10.40;99.90
22145;DHT22;11238;48.730;11.566;2024-02-14T12:55:00;10.50;99.90
22145;DHT22;11238;48.730;11.566;2024-02-14T12:57:26;10.50;99.90
22145;DHT22;11238;48.730;11.566;2024-02-14T12:59:52;10.70;99.90
22145;DHT22;11238;48.730;11.566;2024-02-14T13:02:17;10.80;99.90
22145;DHT22;11238;48.730;11.566;2024-02-14T13:04:43;11.00;99.90
22145;DHT22;11238;48.730;11.566;2024-02-14T13:07:10;11.10;99.90
22145;DHT22;11238;48.730;11.566;2024-02-14T13:09:35;11.30;99.90
22145;DHT22;11238;48.730;11.566;2024-02-14T13:12:02;11.50;99.90
22145;DHT22;11238;48.730;11.566;2024-02-14T13:14:28;11.80;99.90
22145;DHT22;11238;48.730;11.566;2024-02-14T13:16:58;11.80;99.90
22145;DHT22;11238;48.730;11.566;2024-02-14T13:19:23;11.90;99.90
22145;DHT22;11238;48.730;11.566;2024-02-14T13:21:49;11.90;99.90
22145;DHT22;11238;48.730;11.566;2024-02-14T13:24:15;11.90;99.90
22145;DHT22;11238;48.730;11.566;2024-02-14T13:26:42;11.80;99.90
22145;DHT22;11238;48.730;11.566;2024-02-14T13:29:08;11.60;99.90
22145;DHT22;11238;48.730;11.566;2024-02-14T13:31:33;11.50;99.90
22145;DHT22;11238;48.730;11.566;2024-02-14T13:33:59;11.50;99.90
22145;DHT22;11238;48.730;11.566;2024-02-14T13:36:25;11.70;99.90
22145;DHT22;11238;48.730;11.566;2024-02-14T13:38:50;11.90;99.90
22145;DHT22;11238;48.730;11.566;2024-02-14T13:41:16;12.00;99.90
22145;DHT22;11238;48.730;11.566;2024-02-14T13:43:43;11.90;99.90
22145;DHT22;11238;48.730;11.566;2024-02-14T13:46:09;11.80;99.90
22145;DHT22;11238;48.730;11.566;2024-02-14T13:48:35;11.60;99.90
22145;DHT22;11238;48.730;11.566;2024-02-14T13:51:01;11.50;99.90
22145;DHT22;11238;48.730;11.566;2024-02-14T13:53:29;11.50;99.90
22145;DHT22;11238;48.730;11.566;2024-02-14T13:55:54;11.40;99.90
22145;DHT22;11238;48.730;11.566;2024-02-14T13:58:22;11.40;99.90
22145;DHT22;11238;48.730;11.566;2024-02-14T14:00:48;11.40;99.90
22145;DHT22;11238;48.730;11.566;2024-02-14T14:03:13;11.30;99.90
22145;DHT22;11238;48.730;11.566;2024-02-14T14:05:39;11.30;99.90
22145;DHT22;11238;48.730;11.566;2024-02-14T14:08:06;11.20;99.90
22145;DHT22;11238;48.730;11.566;2024-02-14T14:10:31;11.30;99.90
22145;DHT22;11238;48.730;11.566;2024-02-14T14:12:57;11.10;99.90
22145;DHT22;11238;48.730;11.566;2024-02-14T14:15:23;11.10;99.90
22145;DHT22;11238;48.730;11.566;2024-02-14T14:17:48;11.10;99.90
22145;DHT22;11238;48.730;11.566;2024-02-14T14:20:14;11.10;99.90
22145;DHT22;11238;48.730;11.566;2024-02-14T14:22:40;11.10;99.90
22145;DHT22;11238;48.730;11.566;2024-02-14T14:25:07;11.10;99.90
22145;DHT22;11238;48.730;11.566;2024-02-14T14:27:34;11.10;99.90
22145;DHT22;11238;48.730;11.566;2024-02-14T14:30:00;11.00;99.90
22145;DHT22;11238;48.730;11.566;2024-02-14T14:32:26;11.00;99.90
22145;DHT22;11238;48.730;11.566;2024-02-14T14:34:52;11.00;99.90
22145;DHT22;11238;48.730;11.566;2024-02-14T14:37:18;11.00;99.90
22145;DHT22;11238;48.730;11.566;2024-02-14T14:39:44;11.00;99.90
22145;DHT22;11238;48.730;11.566;2024-02-14T14:42:10;11.00;99.90
22145;DHT22;11238;48.730;11.566;2024-02-14T14:44:36;11.00;99.90
22145;DHT22;11238;48.730;11.566;2024-02-14T14:47:02;11.00;99.90
22145;DHT22;11238;48.730;11.566;2024-02-14T14:49:28;11.00;99.90
22145;DHT22;11238;48.730;11.566;2024-02-14T14:51:54;11.00;99.90
22145;DHT22;11238;48.730;11.566;2024-02-14T14:54:20;10.90;99.90
22145;DHT22;11238;48.730;11.566;2024-02-14T14:56:46;10.90;99.90
22145;DHT22;11238;48.730;11.566;2024-02-14T14:59:12;11.00;99.90
22145;DHT22;11238;48.730;11.566;2024-02-14T15:01:38;11.00;99.90
22145;DHT22;11238;48.730;11.566;2024-02-14T15:04:04;11.00;99.90
22145;DHT22;11238;48.730;11.566;2024-02-14T15:06:31;11.00;99.90
22145;DHT22;11238;48.730;11.566;2024-02-14T15:08:57;10.90;99.90
22145;DHT22;11238;48.730;11.566;2024-02-14T15:11:23;10.80;99.90
22145;DHT22;11238;48.730;11.566;2024-02-14T15:13:49;10.90;99.90
22145;DHT22;11238;48.730;11.566;2024-02-14T15:16:15;10.90;99.90
22145;DHT22;11238;48.730;11.566;2024-02-14T15:18:41;11.00;99.90
22145;DHT22;11238;48.730;11.566;2024-02-14T15:21:09;11.00;99.90
22145;DHT22;11238;48.730;11.566;2024-02-14T15:23:35;10.90;99.90
22145;DHT22;11238;48.730;11.566;2024-02-14T15:26:01;10.90;99.90